createdAt,value
2017-06-05T00:00:29.687Z,1008.14
2017-06-05T00:01:29.674Z,1008.15
2017-06-05T00:02:29.662Z,1008.19
2017-06-05T00:03:29.648Z,1008.2
2017-06-05T00:04:29.636Z,1008.16
2017-06-05T00:05:29.621Z,1008.12
2017-06-05T00:06:29.607Z,1008.16
2017-06-05T00:07:29.594Z,1008.14
2017-06-05T00:08:29.582Z,1008.15
2017-06-05T00:09:29.570Z,1008.18
2017-06-05T00:10:29.552Z,1008.18
2017-06-05T00:11:29.539Z,1008.18
2017-06-05T00:12:29.528Z,1008.19
2017-06-05T00:13:29.513Z,1008.21
2017-06-05T00:14:29.499Z,1008.2
2017-06-05T00:15:29.485Z,1008.21
2017-06-05T00:16:29.472Z,1008.22
2017-06-05T00:17:29.458Z,1008.2
2017-06-05T00:18:29.448Z,1008.18
2017-06-05T00:19:29.433Z,1008.18
2017-06-05T00:20:29.418Z,1008.15
2017-06-05T00:21:29.608Z,1008.12
2017-06-05T00:22:29.392Z,1008.13
2017-06-05T00:23:29.378Z,1008.15
2017-06-05T00:24:29.364Z,1008.12
2017-06-05T00:25:29.352Z,1008.13
2017-06-05T00:26:29.340Z,1008.1
2017-06-05T00:27:29.324Z,1008.13
2017-06-05T00:28:29.311Z,1008.1
2017-06-05T00:29:29.298Z,1008.09
2017-06-05T00:30:29.284Z,1008.06
2017-06-05T00:31:29.299Z,1008.05
2017-06-05T00:32:29.257Z,1008.05
2017-06-05T00:33:29.273Z,1008.05
2017-06-05T00:34:29.230Z,1008.03
2017-06-05T00:35:29.216Z,1008
2017-06-05T00:36:29.208Z,1008
2017-06-05T00:37:29.191Z,1007.95
2017-06-05T00:38:29.181Z,1007.98
2017-06-05T00:39:29.163Z,1007.98
2017-06-05T00:40:29.149Z,1007.97
2017-06-05T00:41:29.134Z,1007.96
2017-06-05T00:42:29.120Z,1007.94
2017-06-05T00:43:29.107Z,1007.97
2017-06-05T00:44:29.092Z,1007.94
2017-06-05T00:45:29.080Z,1007.99
2017-06-05T00:46:29.069Z,1007.94
2017-06-05T00:47:29.053Z,1007.94
2017-06-05T00:48:29.039Z,1007.94
2017-06-05T00:49:29.025Z,1007.91
2017-06-05T00:50:29.013Z,1007.91
2017-06-05T00:51:28.999Z,1007.94
2017-06-05T00:52:28.984Z,1007.91
2017-06-05T00:53:28.969Z,1007.87
2017-06-05T00:54:28.959Z,1007.88
2017-06-05T00:55:28.943Z,1007.9
2017-06-05T00:56:28.934Z,1007.91
2017-06-05T00:57:28.917Z,1007.93
2017-06-05T00:58:28.902Z,1007.91
2017-06-05T00:59:28.889Z,1007.92
2017-06-05T01:00:28.875Z,1007.92
2017-06-05T01:01:28.860Z,1007.92
2017-06-05T01:02:28.848Z,1007.91
2017-06-05T01:03:28.834Z,1007.9
2017-06-05T01:04:28.820Z,1007.9
2017-06-05T01:05:28.807Z,1007.9
2017-06-05T01:06:28.791Z,1007.9
2017-06-05T01:07:28.779Z,1007.9
2017-06-05T01:08:28.765Z,1007.9
2017-06-05T01:09:28.753Z,1007.89
2017-06-05T01:10:28.786Z,1007.87
2017-06-05T01:11:28.724Z,1007.87
2017-06-05T01:12:28.739Z,1007.85
2017-06-05T01:13:28.696Z,1007.85
2017-06-05T01:14:28.682Z,1007.83
2017-06-05T01:15:28.675Z,1007.85
2017-06-05T01:16:28.657Z,1007.87
2017-06-05T01:17:28.644Z,1007.86
2017-06-05T01:18:28.626Z,1007.85
2017-06-05T01:19:28.614Z,1007.9
2017-06-05T01:20:28.599Z,1007.88
2017-06-05T01:21:28.586Z,1007.85
2017-06-05T01:22:28.572Z,1007.92
2017-06-05T01:23:28.557Z,1007.85
2017-06-05T01:24:28.542Z,1007.86
2017-06-05T01:25:28.532Z,1007.85
2017-06-05T01:26:28.514Z,1007.89
2017-06-05T01:27:28.502Z,1007.85
2017-06-05T01:28:28.488Z,1007.88
2017-06-05T01:29:28.477Z,1007.87
2017-06-05T01:30:28.460Z,1007.86
2017-06-05T01:31:28.446Z,1007.88
2017-06-05T01:32:28.431Z,1007.86
2017-06-05T01:33:28.417Z,1007.85
2017-06-05T01:34:28.402Z,1007.84
2017-06-05T01:35:28.391Z,1007.8
2017-06-05T01:36:28.373Z,1007.77
2017-06-05T01:37:28.361Z,1007.81
2017-06-05T01:38:28.345Z,1007.83
2017-06-05T01:39:28.331Z,1007.83
2017-06-05T01:40:28.318Z,1007.82
2017-06-05T01:41:28.303Z,1007.84
2017-06-05T01:42:28.289Z,1007.82
2017-06-05T01:43:28.274Z,1007.83
2017-06-05T01:44:28.261Z,1007.83
2017-06-05T01:45:28.246Z,1007.81
2017-06-05T01:46:28.229Z,1007.78
2017-06-05T01:47:28.216Z,1007.82
2017-06-05T01:48:28.202Z,1007.77
2017-06-05T01:49:28.189Z,1007.83
2017-06-05T01:50:28.174Z,1007.82
2017-06-05T01:51:28.159Z,1007.81
2017-06-05T01:52:28.146Z,1007.84
2017-06-05T01:53:28.131Z,1007.8
2017-06-05T01:54:28.117Z,1007.79
2017-06-05T01:55:28.103Z,1007.82
2017-06-05T01:56:28.087Z,1007.82
2017-06-05T01:57:28.075Z,1007.8
2017-06-05T01:58:28.058Z,1007.79
2017-06-05T01:59:28.047Z,1007.78
2017-06-05T02:00:28.030Z,1007.81
2017-06-05T02:01:28.015Z,1007.79
2017-06-05T02:02:28.003Z,1007.75
2017-06-05T02:03:27.989Z,1007.8
2017-06-05T02:04:27.978Z,1007.74
2017-06-05T02:05:27.958Z,1007.79
2017-06-05T02:06:27.946Z,1007.78
2017-06-05T02:07:27.931Z,1007.76
2017-06-05T02:08:27.915Z,1007.77
2017-06-05T02:09:27.899Z,1007.76
2017-06-05T02:10:27.886Z,1007.77
2017-06-05T02:11:27.873Z,1007.78
2017-06-05T02:12:27.856Z,1007.78
2017-06-05T02:13:27.843Z,1007.71
2017-06-05T02:14:27.828Z,1007.73
2017-06-05T02:15:27.815Z,1007.69
2017-06-05T02:16:27.800Z,1007.75
2017-06-05T02:17:27.789Z,1007.72
2017-06-05T02:18:27.772Z,1007.71
2017-06-05T02:19:27.755Z,1007.72
2017-06-05T02:20:27.741Z,1007.7
2017-06-05T02:21:27.929Z,1007.71
2017-06-05T02:22:27.714Z,1007.72
2017-06-05T02:23:27.698Z,1007.7
2017-06-05T02:24:27.688Z,1007.67
2017-06-05T02:25:27.720Z,1007.7
2017-06-05T02:26:27.656Z,1007.73
2017-06-05T02:27:27.641Z,1007.73
2017-06-05T02:28:27.627Z,1007.75
2017-06-05T02:29:27.611Z,1007.73
2017-06-05T02:30:27.597Z,1007.74
2017-06-05T02:31:27.582Z,1007.76
2017-06-05T02:32:27.567Z,1007.72
2017-06-05T02:33:27.553Z,1007.74
2017-06-05T02:34:27.541Z,1007.71
2017-06-05T02:35:27.524Z,1007.79
2017-06-05T02:36:27.509Z,1007.69
2017-06-05T02:37:27.495Z,1007.74
2017-06-05T02:38:27.481Z,1007.75
2017-06-05T02:39:27.470Z,1007.73
2017-06-05T02:40:27.453Z,1007.73
2017-06-05T02:41:27.438Z,1007.71
2017-06-05T02:42:27.422Z,1007.74
2017-06-05T02:43:27.408Z,1007.72
2017-06-05T02:44:27.394Z,1007.72
2017-06-05T02:45:27.380Z,1007.73
2017-06-05T02:46:27.364Z,1007.69
2017-06-05T02:47:27.352Z,1007.72
2017-06-05T02:48:27.335Z,1007.69
2017-06-05T02:49:27.319Z,1007.7
2017-06-05T02:50:27.305Z,1007.69
2017-06-05T02:51:27.291Z,1007.67
2017-06-05T02:52:27.277Z,1007.68
2017-06-05T02:53:27.262Z,1007.67
2017-06-05T02:54:27.247Z,1007.68
2017-06-05T02:55:27.232Z,1007.67
2017-06-05T02:56:27.218Z,1007.69
2017-06-05T02:57:27.204Z,1007.66
2017-06-05T02:58:27.189Z,1007.64
2017-06-05T02:59:27.174Z,1007.63
2017-06-05T03:00:27.159Z,1007.64
2017-06-05T03:01:27.144Z,1007.69
2017-06-05T03:02:27.133Z,1007.7
2017-06-05T03:03:27.116Z,1007.68
2017-06-05T03:04:27.102Z,1007.7
2017-06-05T03:05:27.089Z,1007.66
2017-06-05T03:06:27.073Z,1007.63
2017-06-05T03:07:27.059Z,1007.65
2017-06-05T03:08:27.041Z,1007.66
2017-06-05T03:09:27.030Z,1007.66
2017-06-05T03:10:27.014Z,1007.65
2017-06-05T03:11:27.028Z,1007.62
2017-06-05T03:12:26.992Z,1007.64
2017-06-05T03:13:26.968Z,1007.62
2017-06-05T03:14:26.953Z,1007.63
2017-06-05T03:15:26.938Z,1007.62
2017-06-05T03:16:26.925Z,1007.6
2017-06-05T03:17:26.910Z,1007.61
2017-06-05T03:18:26.895Z,1007.61
2017-06-05T03:19:26.883Z,1007.58
2017-06-05T03:20:26.867Z,1007.59
2017-06-05T03:21:26.852Z,1007.55
2017-06-05T03:22:26.835Z,1007.56
2017-06-05T03:23:26.822Z,1007.56
2017-06-05T03:24:26.808Z,1007.55
2017-06-05T03:25:26.805Z,1007.56
2017-06-05T03:26:26.778Z,1007.54
2017-06-05T03:27:26.764Z,1007.52
2017-06-05T03:28:26.750Z,1007.61
2017-06-05T03:29:26.732Z,1007.56
2017-06-05T03:30:26.720Z,1007.59
2017-06-05T03:31:26.707Z,1007.57
2017-06-05T03:32:26.689Z,1007.58
2017-06-05T03:33:26.727Z,1007.59
2017-06-05T03:34:26.661Z,1007.6
2017-06-05T03:35:26.646Z,1007.59
2017-06-05T03:36:26.630Z,1007.6
2017-06-05T03:37:26.666Z,1007.56
2017-06-05T03:38:26.600Z,1007.56
2017-06-05T03:39:26.586Z,1007.54
2017-06-05T03:40:26.571Z,1007.55
2017-06-05T03:41:26.557Z,1007.57
2017-06-05T03:42:26.542Z,1007.54
2017-06-05T03:43:26.527Z,1007.53
2017-06-05T03:44:26.513Z,1007.49
2017-06-05T03:45:26.501Z,1007.49
2017-06-05T03:46:26.516Z,1007.49
2017-06-05T03:47:26.469Z,1007.53
2017-06-05T03:48:26.455Z,1007.51
2017-06-05T03:49:26.440Z,1007.47
2017-06-05T03:50:26.427Z,1007.45
2017-06-05T03:51:26.412Z,1007.49
2017-06-05T03:52:26.395Z,1007.47
2017-06-05T03:53:26.383Z,1007.51
2017-06-05T03:54:26.367Z,1007.48
2017-06-05T03:55:26.355Z,1007.46
2017-06-05T03:56:26.338Z,1007.45
2017-06-05T03:57:26.324Z,1007.47
2017-06-05T03:58:26.312Z,1007.51
2017-06-05T03:59:26.295Z,1007.49
2017-06-05T04:00:26.282Z,1007.48
2017-06-05T04:01:26.266Z,1007.5
2017-06-05T04:02:26.251Z,1007.46
2017-06-05T04:03:26.237Z,1007.4
2017-06-05T04:04:26.223Z,1007.5
2017-06-05T04:05:26.209Z,1007.47
2017-06-05T04:06:26.195Z,1007.51
2017-06-05T04:07:26.180Z,1007.5
2017-06-05T04:08:26.165Z,1007.53
2017-06-05T04:09:26.151Z,1007.52
2017-06-05T04:10:26.136Z,1007.55
2017-06-05T04:11:26.123Z,1007.53
2017-06-05T04:12:26.107Z,1007.56
2017-06-05T04:13:26.094Z,1007.55
2017-06-05T04:14:26.080Z,1007.55
2017-06-05T04:15:26.065Z,1007.57
2017-06-05T04:16:26.050Z,1007.58
2017-06-05T04:17:26.037Z,1007.55
2017-06-05T04:18:26.027Z,1007.56
2017-06-05T04:19:26.008Z,1007.61
2017-06-05T04:20:25.993Z,1007.58
2017-06-05T04:21:26.181Z,1007.56
2017-06-05T04:22:25.966Z,1007.57
2017-06-05T04:23:25.954Z,1007.51
2017-06-05T04:24:25.936Z,1007.56
2017-06-05T04:25:25.923Z,1007.52
2017-06-05T04:26:25.910Z,1007.5
2017-06-05T04:27:25.899Z,1007.53
2017-06-05T04:28:25.880Z,1007.49
2017-06-05T04:29:25.867Z,1007.5
2017-06-05T04:30:25.855Z,1007.52
2017-06-05T04:31:25.837Z,1007.51
2017-06-05T04:32:25.824Z,1007.52
2017-06-05T04:33:25.811Z,1007.52
2017-06-05T04:34:25.801Z,1007.52
2017-06-05T04:35:25.783Z,1007.51
2017-06-05T04:36:25.771Z,1007.53
2017-06-05T04:37:25.755Z,1007.53
2017-06-05T04:38:25.744Z,1007.51
2017-06-05T04:39:25.726Z,1007.52
2017-06-05T04:40:25.714Z,1007.54
2017-06-05T04:41:25.700Z,1007.54
2017-06-05T04:42:25.686Z,1007.51
2017-06-05T04:43:25.725Z,1007.53
2017-06-05T04:44:25.658Z,1007.51
2017-06-05T04:45:25.643Z,1007.56
2017-06-05T04:46:25.631Z,1007.53
2017-06-05T04:47:25.618Z,1007.53
2017-06-05T04:48:25.605Z,1007.52
2017-06-05T04:49:25.590Z,1007.53
2017-06-05T04:50:25.577Z,1007.51
2017-06-05T04:51:25.562Z,1007.54
2017-06-05T04:52:25.552Z,1007.54
2017-06-05T04:53:25.534Z,1007.55
2017-06-05T04:54:25.547Z,1007.57
2017-06-05T04:55:25.508Z,1007.57
2017-06-05T04:56:25.499Z,1007.62
2017-06-05T04:57:25.482Z,1007.56
2017-06-05T04:58:25.469Z,1007.57
2017-06-05T04:59:25.455Z,1007.58
2017-06-05T05:00:25.442Z,1007.6
2017-06-05T05:01:25.429Z,1007.58
2017-06-05T05:02:25.418Z,1007.58
2017-06-05T05:03:25.402Z,1007.59
2017-06-05T05:04:25.390Z,1007.63
2017-06-05T05:05:25.378Z,1007.61
2017-06-05T05:06:25.364Z,1007.6
2017-06-05T05:07:25.351Z,1007.63
2017-06-05T05:08:25.337Z,1007.66
2017-06-05T05:09:25.323Z,1007.59
2017-06-05T05:10:25.311Z,1007.62
2017-06-05T05:11:25.297Z,1007.59
2017-06-05T05:12:25.286Z,1007.63
2017-06-05T05:13:25.288Z,1007.65
2017-06-05T05:14:25.258Z,1007.62
2017-06-05T05:15:25.242Z,1007.62
2017-06-05T05:16:25.229Z,1007.65
2017-06-05T05:17:25.218Z,1007.65
2017-06-05T05:18:25.206Z,1007.6
2017-06-05T05:19:25.192Z,1007.64
2017-06-05T05:20:25.177Z,1007.61
2017-06-05T05:21:25.165Z,1007.61
2017-06-05T05:22:25.150Z,1007.61
2017-06-05T05:23:25.138Z,1007.61
2017-06-05T05:24:25.128Z,1007.63
2017-06-05T05:25:25.112Z,1007.6
2017-06-05T05:26:25.099Z,1007.61
2017-06-05T05:27:25.087Z,1007.63
2017-06-05T05:28:25.073Z,1007.62
2017-06-05T05:29:25.060Z,1007.62
2017-06-05T05:30:25.047Z,1007.59
2017-06-05T05:31:25.035Z,1007.59
2017-06-05T05:32:25.022Z,1007.56
2017-06-05T05:33:25.009Z,1007.59
2017-06-05T05:34:24.997Z,1007.57
2017-06-05T05:35:24.984Z,1007.56
2017-06-05T05:36:24.972Z,1007.56
2017-06-05T05:37:24.958Z,1007.56
2017-06-05T05:38:24.946Z,1007.59
2017-06-05T05:39:24.937Z,1007.6
2017-06-05T05:40:24.920Z,1007.6
2017-06-05T05:41:24.910Z,1007.6
2017-06-05T05:42:24.934Z,1007.6
2017-06-05T05:43:24.886Z,1007.61
2017-06-05T05:44:24.872Z,1007.58
2017-06-05T05:45:24.858Z,1007.57
2017-06-05T05:46:24.851Z,1007.57
2017-06-05T05:47:24.836Z,1007.54
2017-06-05T05:48:24.823Z,1007.53
2017-06-05T05:49:24.812Z,1007.53
2017-06-05T05:50:24.801Z,1007.53
2017-06-05T05:51:24.787Z,1007.52
2017-06-05T05:52:24.774Z,1007.53
2017-06-05T05:53:24.763Z,1007.55
2017-06-05T05:54:24.751Z,1007.56
2017-06-05T05:55:24.739Z,1007.52
2017-06-05T05:56:24.727Z,1007.57
2017-06-05T05:57:24.716Z,1007.55
2017-06-05T05:58:24.703Z,1007.53
2017-06-05T05:59:24.693Z,1007.55
2017-06-05T06:00:24.681Z,1007.6
2017-06-05T06:01:24.669Z,1007.53
2017-06-05T06:02:24.656Z,1007.54
2017-06-05T06:03:24.646Z,1007.59
2017-06-05T06:04:24.633Z,1007.61
2017-06-05T06:05:24.622Z,1007.57
2017-06-05T06:06:24.611Z,1007.59
2017-06-05T06:07:24.600Z,1007.57
2017-06-05T06:08:24.587Z,1007.58
2017-06-05T06:09:24.575Z,1007.55
2017-06-05T06:10:24.565Z,1007.54
2017-06-05T06:11:24.552Z,1007.55
2017-06-05T06:12:24.542Z,1007.54
2017-06-05T06:13:24.530Z,1007.55
2017-06-05T06:14:24.519Z,1007.52
2017-06-05T06:15:24.506Z,1007.55
2017-06-05T06:16:24.500Z,1007.54
2017-06-05T06:17:24.485Z,1007.6
2017-06-05T06:18:24.473Z,1007.58
2017-06-05T06:19:24.462Z,1007.56
2017-06-05T06:20:24.450Z,1007.56
2017-06-05T06:21:24.641Z,1007.56
2017-06-05T06:22:24.428Z,1007.58
2017-06-05T06:23:24.417Z,1007.54
2017-06-05T06:24:24.407Z,1007.55
2017-06-05T06:25:24.395Z,1007.58
2017-06-05T06:26:24.385Z,1007.58
2017-06-05T06:27:24.371Z,1007.53
2017-06-05T06:28:24.360Z,1007.61
2017-06-05T06:29:24.349Z,1007.65
2017-06-05T06:30:24.339Z,1007.59
2017-06-05T06:31:24.327Z,1007.61
2017-06-05T06:32:24.317Z,1007.62
2017-06-05T06:33:24.305Z,1007.57
2017-06-05T06:34:24.295Z,1007.55
2017-06-05T06:35:24.281Z,1007.55
2017-06-05T06:36:24.272Z,1007.53
2017-06-05T06:37:24.286Z,1007.56
2017-06-05T06:38:24.259Z,1007.55
2017-06-05T06:39:24.239Z,1007.52
2017-06-05T06:40:24.226Z,1007.52
2017-06-05T06:41:24.215Z,1007.5
2017-06-05T06:42:24.204Z,1007.49
2017-06-05T06:43:24.194Z,1007.5
2017-06-05T06:44:24.182Z,1007.5
2017-06-05T06:45:24.173Z,1007.54
2017-06-05T06:46:24.160Z,1007.57
2017-06-05T06:47:24.149Z,1007.6
2017-06-05T06:48:24.190Z,1007.62
2017-06-05T06:49:24.130Z,1007.58
2017-06-05T06:50:24.117Z,1007.59
2017-06-05T06:51:24.107Z,1007.58
2017-06-05T06:52:24.098Z,1007.52
2017-06-05T06:53:24.086Z,1007.49
2017-06-05T06:54:24.075Z,1007.48
2017-06-05T06:55:24.067Z,1007.5
2017-06-05T06:56:24.057Z,1007.44
2017-06-05T06:57:24.046Z,1007.47
2017-06-05T06:58:24.037Z,1007.47
2017-06-05T06:59:24.029Z,1007.46
2017-06-05T07:00:24.016Z,1007.45
2017-06-05T07:01:24.005Z,1007.5
2017-06-05T07:02:23.996Z,1007.54
2017-06-05T07:03:23.985Z,1007.48
2017-06-05T07:04:23.977Z,1007.47
2017-06-05T07:05:23.967Z,1007.47
2017-06-05T07:06:23.957Z,1007.55
2017-06-05T07:07:23.948Z,1007.56
2017-06-05T07:08:23.937Z,1007.6
2017-06-05T07:09:23.927Z,1007.64
2017-06-05T07:10:23.918Z,1007.67
2017-06-05T07:11:23.910Z,1007.71
2017-06-05T07:12:23.900Z,1007.7
2017-06-05T07:13:23.892Z,1007.71
2017-06-05T07:14:23.884Z,1007.67
2017-06-05T07:15:23.876Z,1007.67
2017-06-05T07:16:23.870Z,1007.62
2017-06-05T07:17:23.862Z,1007.61
2017-06-05T07:18:23.854Z,1007.63
2017-06-05T07:19:23.846Z,1007.63
2017-06-05T07:20:23.844Z,1007.58
2017-06-05T07:21:23.835Z,1007.61
2017-06-05T07:22:23.827Z,1007.61
2017-06-05T07:23:23.822Z,1007.6
2017-06-05T07:24:23.814Z,1007.6
2017-06-05T07:25:23.810Z,1007.6
2017-06-05T07:26:23.802Z,1007.58
2017-06-05T07:27:23.801Z,1007.58
2017-06-05T07:28:23.793Z,1007.56
2017-06-05T07:29:23.812Z,1007.56
2017-06-05T07:30:23.778Z,1007.56
2017-06-05T07:31:23.775Z,1007.57
2017-06-05T07:32:23.767Z,1007.57
2017-06-05T07:33:23.762Z,1007.56
2017-06-05T07:34:23.758Z,1007.53
2017-06-05T07:35:23.752Z,1007.57
2017-06-05T07:36:23.751Z,1007.55
2017-06-05T07:37:23.740Z,1007.48
2017-06-05T07:38:23.733Z,1007.53
2017-06-05T07:39:23.729Z,1007.58
2017-06-05T07:40:23.721Z,1007.61
2017-06-05T07:41:23.716Z,1007.53
2017-06-05T07:42:23.717Z,1007.55
2017-06-05T07:43:23.708Z,1007.6
2017-06-05T07:44:23.696Z,1007.57
2017-06-05T07:45:23.691Z,1007.58
2017-06-05T07:46:23.687Z,1007.58
2017-06-05T07:47:23.681Z,1007.55
2017-06-05T07:48:23.675Z,1007.53
2017-06-05T07:49:23.670Z,1007.5
2017-06-05T07:50:23.667Z,1007.53
2017-06-05T07:51:23.661Z,1007.57
2017-06-05T07:52:23.657Z,1007.59
2017-06-05T07:53:23.651Z,1007.62
2017-06-05T07:54:23.646Z,1007.58
2017-06-05T07:55:23.692Z,1007.55
2017-06-05T07:56:23.639Z,1007.56
2017-06-05T07:57:23.633Z,1007.53
2017-06-05T07:58:23.631Z,1007.53
2017-06-05T07:59:23.626Z,1007.54
2017-06-05T08:00:23.619Z,1007.56
2017-06-05T08:01:23.619Z,1007.48
2017-06-05T08:02:23.610Z,1007.5
2017-06-05T08:03:23.607Z,1007.52
2017-06-05T08:04:23.603Z,1007.47
2017-06-05T08:05:23.600Z,1007.52
2017-06-05T08:06:23.595Z,1007.51
2017-06-05T08:07:23.593Z,1007.55
2017-06-05T08:08:23.590Z,1007.57
2017-06-05T08:09:23.585Z,1007.53
2017-06-05T08:10:23.581Z,1007.53
2017-06-05T08:11:23.577Z,1007.5
2017-06-05T08:12:23.575Z,1007.5
2017-06-05T08:13:23.571Z,1007.5
2017-06-05T08:14:23.566Z,1007.46
2017-06-05T08:15:23.567Z,1007.47
2017-06-05T08:16:23.560Z,1007.4
2017-06-05T08:17:23.557Z,1007.4
2017-06-05T08:18:23.553Z,1007.38
2017-06-05T08:19:23.550Z,1007.38
2017-06-05T08:20:23.598Z,1007.39
2017-06-05T08:21:23.747Z,1007.4
2017-06-05T08:22:23.541Z,1007.33
2017-06-05T08:23:23.537Z,1007.33
2017-06-05T08:24:23.535Z,1007.3
2017-06-05T08:25:23.530Z,1007.31
2017-06-05T08:26:23.527Z,1007.3
2017-06-05T08:27:23.525Z,1007.28
2017-06-05T08:28:23.519Z,1007.29
2017-06-05T08:29:23.519Z,1007.3
2017-06-05T08:30:23.513Z,1007.33
2017-06-05T08:31:23.510Z,1007.3
2017-06-05T08:32:23.506Z,1007.32
2017-06-05T08:33:23.502Z,1007.35
2017-06-05T08:34:23.500Z,1007.42
2017-06-05T08:35:23.546Z,1007.43
2017-06-05T08:36:23.491Z,1007.42
2017-06-05T08:37:23.489Z,1007.39
2017-06-05T08:38:23.486Z,1007.46
2017-06-05T08:39:23.481Z,1007.37
2017-06-05T08:40:23.480Z,1007.42
2017-06-05T08:41:23.476Z,1007.47
2017-06-05T08:42:23.474Z,1007.53
2017-06-05T08:43:23.470Z,1007.5
2017-06-05T08:44:23.470Z,1007.44
2017-06-05T08:45:23.466Z,1007.44
2017-06-05T08:46:23.464Z,1007.43
2017-06-05T08:47:23.459Z,1007.36
2017-06-05T08:48:23.458Z,1007.31
2017-06-05T08:49:23.456Z,1007.2
2017-06-05T08:50:23.454Z,1007.04
2017-06-05T08:51:23.453Z,1007.06
2017-06-05T08:52:23.450Z,1007.08
2017-06-05T08:53:23.448Z,1007.04
2017-06-05T08:54:23.445Z,1007.04
2017-06-05T08:55:23.444Z,1007.03
2017-06-05T08:56:23.446Z,1007.1
2017-06-05T08:57:23.440Z,1007.07
2017-06-05T08:58:23.436Z,1007
2017-06-05T08:59:23.434Z,1006.9
2017-06-05T09:00:23.432Z,1006.94
2017-06-05T09:01:23.427Z,1006.88
2017-06-05T09:02:23.424Z,1006.86
2017-06-05T09:03:23.432Z,1006.89
2017-06-05T09:04:23.418Z,1006.88
2017-06-05T09:05:23.415Z,1006.84
2017-06-05T09:06:23.410Z,1006.79
2017-06-05T09:07:23.406Z,1006.79
2017-06-05T09:08:23.402Z,1006.9
2017-06-05T09:09:23.402Z,1006.9
2017-06-05T09:10:23.398Z,1006.94
2017-06-05T09:11:23.390Z,1006.92
2017-06-05T09:12:23.385Z,1007.03
2017-06-05T09:13:23.382Z,1007.06
2017-06-05T09:14:23.377Z,1007.09
2017-06-05T09:15:23.374Z,1006.99
2017-06-05T09:16:23.373Z,1006.99
2017-06-05T09:17:23.364Z,1007.03
2017-06-05T09:18:23.362Z,1007.07
2017-06-05T09:19:23.359Z,1007.12
2017-06-05T09:20:23.355Z,1007.1
2017-06-05T09:21:23.352Z,1007.11
2017-06-05T09:22:23.349Z,1007.11
2017-06-05T09:23:23.421Z,1007.01
2017-06-05T09:24:23.347Z,1006.98
2017-06-05T09:25:23.339Z,1007.09
2017-06-05T09:26:23.339Z,1006.99
2017-06-05T09:27:23.335Z,1006.88
2017-06-05T09:28:23.333Z,1006.99
2017-06-05T09:29:23.329Z,1007.01
2017-06-05T09:30:23.329Z,1006.86
2017-06-05T09:31:23.325Z,1006.94
2017-06-05T09:32:23.324Z,1006.94
2017-06-05T09:33:23.324Z,1007
2017-06-05T09:34:23.320Z,1006.91
2017-06-05T09:35:23.320Z,1007.02
2017-06-05T09:36:23.314Z,1007.09
2017-06-05T09:37:23.313Z,1006.93
2017-06-05T09:38:23.316Z,1007
2017-06-05T09:39:23.309Z,1007.02
2017-06-05T09:40:23.307Z,1006.92
2017-06-05T09:41:23.306Z,1006.92
2017-06-05T09:42:23.304Z,1006.8
2017-06-05T09:43:23.304Z,1006.75
2017-06-05T09:44:23.302Z,1006.87
2017-06-05T09:45:23.300Z,1006.88
2017-06-05T09:46:23.300Z,1006.92
2017-06-05T09:47:23.298Z,1006.9
2017-06-05T09:48:23.300Z,1006.94
2017-06-05T09:49:23.301Z,1006.93
2017-06-05T09:50:23.298Z,1007.06
2017-06-05T09:51:23.297Z,1006.98
2017-06-05T09:52:23.297Z,1006.94
2017-06-05T09:53:23.295Z,1007.04
2017-06-05T09:54:23.294Z,1007.12
2017-06-05T09:55:23.294Z,1007.06
2017-06-05T09:56:23.295Z,1007.11
2017-06-05T09:57:23.295Z,1007.11
2017-06-05T09:58:23.297Z,1007.07
2017-06-05T09:59:23.296Z,1007.09
2017-06-05T10:00:23.298Z,1007.08
2017-06-05T10:01:23.299Z,1007.07
2017-06-05T10:02:23.349Z,1007.04
2017-06-05T10:03:23.301Z,1007.06
2017-06-05T10:04:23.301Z,1007.03
2017-06-05T10:05:23.304Z,1007.03
2017-06-05T10:06:23.307Z,1007.02
2017-06-05T10:07:23.308Z,1006.97
2017-06-05T10:08:23.309Z,1006.95
2017-06-05T10:09:23.310Z,1006.94
2017-06-05T10:10:23.313Z,1006.97
2017-06-05T10:11:23.315Z,1006.97
2017-06-05T10:12:23.316Z,1006.97
2017-06-05T10:13:23.319Z,1006.9
2017-06-05T10:14:23.323Z,1006.86
2017-06-05T10:15:23.326Z,1006.91
2017-06-05T10:16:23.328Z,1006.93
2017-06-05T10:17:23.333Z,1006.89
2017-06-05T10:18:23.337Z,1006.87
2017-06-05T10:19:23.346Z,1006.86
2017-06-05T10:20:23.340Z,1006.82
2017-06-05T10:21:23.343Z,1006.87
2017-06-05T10:22:23.344Z,1006.8
2017-06-05T10:23:23.360Z,1006.79
2017-06-05T10:24:23.358Z,1006.81
2017-06-05T10:25:23.352Z,1006.79
2017-06-05T10:26:23.357Z,1006.75
2017-06-05T10:27:23.359Z,1006.77
2017-06-05T10:28:23.363Z,1006.76
2017-06-05T10:29:23.364Z,1006.71
2017-06-05T10:30:23.368Z,1006.74
2017-06-05T10:31:23.374Z,1006.67
2017-06-05T10:32:23.378Z,1006.72
2017-06-05T10:33:23.380Z,1006.69
2017-06-05T10:34:23.384Z,1006.63
2017-06-05T10:35:23.385Z,1006.61
2017-06-05T10:36:23.397Z,1006.61
2017-06-05T10:37:23.394Z,1006.55
2017-06-05T10:38:23.395Z,1006.53
2017-06-05T10:39:23.403Z,1006.48
2017-06-05T10:40:23.403Z,1006.42
2017-06-05T10:41:23.407Z,1006.41
2017-06-05T10:42:23.410Z,1006.38
2017-06-05T10:43:23.412Z,1006.28
2017-06-05T10:44:23.416Z,1006.24
2017-06-05T10:45:23.420Z,1006.15
2017-06-05T10:46:23.426Z,1006.06
2017-06-05T10:47:23.431Z,1006.11
2017-06-05T10:48:23.432Z,1006.06
2017-06-05T10:49:23.435Z,1005.97
2017-06-05T10:50:23.439Z,1005.98
2017-06-05T10:51:23.444Z,1006
2017-06-05T10:52:23.448Z,1006
2017-06-05T10:53:23.454Z,1005.98
2017-06-05T10:54:23.454Z,1006.01
2017-06-05T10:55:23.458Z,1005.98
2017-06-05T10:56:23.463Z,1005.95
2017-06-05T10:57:23.466Z,1005.94
2017-06-05T10:58:23.469Z,1005.91
2017-06-05T10:59:23.472Z,1005.89
2017-06-05T11:00:23.477Z,1005.93
2017-06-05T11:01:23.481Z,1005.95
2017-06-05T11:02:23.486Z,1005.86
2017-06-05T11:03:23.487Z,1005.86
2017-06-05T11:04:23.491Z,1005.88
2017-06-05T11:05:23.493Z,1005.91
2017-06-05T11:06:23.499Z,1005.92
2017-06-05T11:07:23.501Z,1005.91
2017-06-05T11:08:23.507Z,1005.92
2017-06-05T11:09:23.510Z,1005.85
2017-06-05T11:10:23.513Z,1005.8
2017-06-05T11:11:23.517Z,1005.86
2017-06-05T11:12:23.521Z,1005.82
2017-06-05T11:13:23.524Z,1005.81
2017-06-05T11:14:23.527Z,1005.85
2017-06-05T11:15:23.533Z,1005.84
2017-06-05T11:16:23.544Z,1005.8
2017-06-05T11:17:23.539Z,1005.76
2017-06-05T11:18:23.543Z,1005.78
2017-06-05T11:19:23.551Z,1005.69
2017-06-05T11:20:23.582Z,1005.76
2017-06-05T11:21:23.555Z,1005.78
2017-06-05T11:22:23.608Z,1005.77
2017-06-05T11:23:23.561Z,1005.74
2017-06-05T11:24:23.564Z,1005.71
2017-06-05T11:25:23.568Z,1005.69
2017-06-05T11:26:23.571Z,1005.76
2017-06-05T11:27:23.575Z,1005.75
2017-06-05T11:28:23.579Z,1005.7
2017-06-05T11:29:23.582Z,1005.69
2017-06-05T11:30:23.586Z,1005.65
2017-06-05T11:31:23.590Z,1005.67
2017-06-05T11:32:23.593Z,1005.64
2017-06-05T11:33:23.597Z,1005.65
2017-06-05T11:34:23.601Z,1005.61
2017-06-05T11:35:23.606Z,1005.55
2017-06-05T11:36:23.609Z,1005.54
2017-06-05T11:37:23.613Z,1005.59
2017-06-05T11:38:23.615Z,1005.56
2017-06-05T11:39:23.619Z,1005.52
2017-06-05T11:40:23.622Z,1005.52
2017-06-05T11:41:23.627Z,1005.5
2017-06-05T11:42:23.629Z,1005.49
2017-06-05T11:43:23.633Z,1005.46
2017-06-05T11:44:23.639Z,1005.51
2017-06-05T11:45:23.643Z,1005.47
2017-06-05T11:46:23.646Z,1005.42
2017-06-05T11:47:23.651Z,1005.46
2017-06-05T11:48:23.653Z,1005.42
2017-06-05T11:49:23.657Z,1005.42
2017-06-05T11:50:23.662Z,1005.38
2017-06-05T11:51:23.665Z,1005.39
2017-06-05T11:52:23.675Z,1005.44
2017-06-05T11:53:23.675Z,1005.46
2017-06-05T11:54:23.679Z,1005.46
2017-06-05T11:55:23.685Z,1005.41
2017-06-05T11:56:23.687Z,1005.39
2017-06-05T11:57:23.691Z,1005.33
2017-06-05T11:58:23.746Z,1005.33
2017-06-05T11:59:23.701Z,1005.27
2017-06-05T12:00:23.703Z,1005.32
2017-06-05T12:01:23.707Z,1005.31
2017-06-05T12:02:23.712Z,1005.3
2017-06-05T12:03:23.716Z,1005.23
2017-06-05T12:04:23.723Z,1005.29
2017-06-05T12:05:23.725Z,1005.29
2017-06-05T12:06:23.728Z,1005.34
2017-06-05T12:07:23.734Z,1005.3
2017-06-05T12:08:23.740Z,1005.25